Waterford, California
Current Conditions -  °F | °C
As of 1:02 AM on Monday 22 Dec 2014 (Local Time) from KMOD Reporting Station
Haze Haze  
Wind Chill: 57°   Ceiling: Unl
Heat Index: 57°   Visibility: 6mi
Dew Point: 54°   Wind: 12mph
Humidity: 89%   Direction: 320°NW
Pressure: 30.24"   Gusts: NA
Location:  37.64°N, 120.76°W
Report Text: KMOD 220902Z AUTO 32010KT 6SM BR FEW003 14/12 A3024 RMK AO2 T01390122
Loading
Personal Weather Stations






























Interactive Weather Map New forecast layout! Learn more

10-Day Weather Forecast

Advertisements
Track Severe Weather on mobile